sensor_id;sensor_type;location;lat;lon;timestamp;P1;durP1;ratioP1;P2;durP2;ratioP2
69795;SDS011;57073;45.650;9.612;2023-05-02T00:04:25;15.33;;;8.33;;
69795;SDS011;57073;45.650;9.612;2023-05-02T00:09:26;13.87;;;7.90;;
69795;SDS011;57073;45.650;9.612;2023-05-02T00:14:26;16.00;;;9.27;;
69795;SDS011;57073;45.650;9.612;2023-05-02T00:19:26;15.27;;;9.17;;
69795;SDS011;57073;45.650;9.612;2023-05-02T00:24:27;14.40;;;8.97;;
69795;SDS011;57073;45.650;9.612;2023-05-02T00:29:27;13.83;;;8.50;;
69795;SDS011;57073;45.650;9.612;2023-05-02T00:34:28;15.70;;;8.97;;
69795;SDS011;57073;45.650;9.612;2023-05-02T00:39:29;13.93;;;9.05;;
69795;SDS011;57073;45.650;9.612;2023-05-02T00:44:30;13.63;;;8.77;;
69795;SDS011;57073;45.650;9.612;2023-05-02T00:49:30;14.80;;;9.20;;
69795;SDS011;57073;45.650;9.612;2023-05-02T00:54:31;14.35;;;8.38;;
69795;SDS011;57073;45.650;9.612;2023-05-02T00:59:33;15.00;;;9.57;;
69795;SDS011;57073;45.650;9.612;2023-05-02T01:15:25;12.52;;;8.60;;
69795;SDS011;57073;45.650;9.612;2023-05-02T01:20:27;12.18;;;8.05;;
69795;SDS011;57073;45.650;9.612;2023-05-02T01:31:02;11.32;;;7.20;;
69795;SDS011;57073;45.650;9.612;2023-05-02T01:36:05;12.07;;;6.80;;
69795;SDS011;57073;45.650;9.612;2023-05-02T01:41:07;10.75;;;6.15;;
69795;SDS011;57073;45.650;9.612;2023-05-02T01:46:09;9.27;;;5.80;;
69795;SDS011;57073;45.650;9.612;2023-05-02T01:51:12;8.60;;;5.87;;
69795;SDS011;57073;45.650;9.612;2023-05-02T01:56:17;8.93;;;5.47;;
69795;SDS011;57073;45.650;9.612;2023-05-02T02:01:20;9.55;;;6.00;;
69795;SDS011;57073;45.650;9.612;2023-05-02T02:06:24;11.03;;;6.87;;
69795;SDS011;57073;45.650;9.612;2023-05-02T02:11:34;9.20;;;5.90;;
69795;SDS011;57073;45.650;9.612;2023-05-02T02:16:36;5.70;;;3.97;;
69795;SDS011;57073;45.650;9.612;2023-05-02T02:21:41;3.30;;;2.23;;
69795;SDS011;57073;45.650;9.612;2023-05-02T02:26:43;3.22;;;1.95;;
69795;SDS011;57073;45.650;9.612;2023-05-02T02:31:43;2.90;;;1.37;;
69795;SDS011;57073;45.650;9.612;2023-05-02T02:36:44;3.93;;;1.90;;
69795;SDS011;57073;45.650;9.612;2023-05-02T02:41:59;4.45;;;2.15;;
69795;SDS011;57073;45.650;9.612;2023-05-02T02:47:13;4.30;;;2.73;;
69795;SDS011;57073;45.650;9.612;2023-05-02T02:52:24;5.28;;;3.08;;
69795;SDS011;57073;45.650;9.612;2023-05-02T02:57:34;4.20;;;2.70;;
69795;SDS011;57073;45.650;9.612;2023-05-02T03:02:40;5.43;;;3.00;;
69795;SDS011;57073;45.650;9.612;2023-05-02T03:07:42;5.00;;;3.35;;
69795;SDS011;57073;45.650;9.612;2023-05-02T03:12:42;5.33;;;2.90;;
69795;SDS011;57073;45.650;9.612;2023-05-02T03:17:43;4.27;;;2.70;;
69795;SDS011;57073;45.650;9.612;2023-05-02T03:22:43;4.00;;;2.60;;
69795;SDS011;57073;45.650;9.612;2023-05-02T03:27:43;4.53;;;2.57;;
69795;SDS011;57073;45.650;9.612;2023-05-02T03:32:44;5.77;;;3.83;;
69795;SDS011;57073;45.650;9.612;2023-05-02T03:37:44;6.03;;;3.95;;
69795;SDS011;57073;45.650;9.612;2023-05-02T03:42:45;8.17;;;4.63;;
69795;SDS011;57073;45.650;9.612;2023-05-02T03:47:45;6.40;;;3.90;;
69795;SDS011;57073;45.650;9.612;2023-05-02T03:52:45;4.23;;;2.80;;
69795;SDS011;57073;45.650;9.612;2023-05-02T03:57:46;4.57;;;2.30;;
69795;SDS011;57073;45.650;9.612;2023-05-02T04:02:46;4.00;;;2.30;;
69795;SDS011;57073;45.650;9.612;2023-05-02T04:07:46;3.50;;;2.25;;
69795;SDS011;57073;45.650;9.612;2023-05-02T04:12:47;3.67;;;2.60;;
69795;SDS011;57073;45.650;9.612;2023-05-02T04:17:48;4.37;;;2.63;;
69795;SDS011;57073;45.650;9.612;2023-05-02T04:22:48;4.23;;;2.70;;
69795;SDS011;57073;45.650;9.612;2023-05-02T04:27:49;4.57;;;3.20;;
69795;SDS011;57073;45.650;9.612;2023-05-02T04:32:49;4.40;;;3.20;;
69795;SDS011;57073;45.650;9.612;2023-05-02T04:37:50;5.23;;;3.50;;
69795;SDS011;57073;45.650;9.612;2023-05-02T04:42:50;6.67;;;4.10;;
69795;SDS011;57073;45.650;9.612;2023-05-02T04:47:50;6.03;;;3.93;;
69795;SDS011;57073;45.650;9.612;2023-05-02T04:52:51;5.60;;;3.90;;
69795;SDS011;57073;45.650;9.612;2023-05-02T04:57:51;7.30;;;4.40;;
69795;SDS011;57073;45.650;9.612;2023-05-02T05:02:51;7.43;;;4.50;;
69795;SDS011;57073;45.650;9.612;2023-05-02T05:07:52;11.83;;;4.80;;
69795;SDS011;57073;45.650;9.612;2023-05-02T05:12:52;6.73;;;4.63;;
69795;SDS011;57073;45.650;9.612;2023-05-02T05:17:55;9.90;;;5.07;;
69795;SDS011;57073;45.650;9.612;2023-05-02T05:22:55;8.47;;;5.17;;
69795;SDS011;57073;45.650;9.612;2023-05-02T05:27:56;9.27;;;5.88;;
69795;SDS011;57073;45.650;9.612;2023-05-02T05:32:56;8.03;;;4.63;;
69795;SDS011;57073;45.650;9.612;2023-05-02T05:37:59;8.67;;;4.30;;
69795;SDS011;57073;45.650;9.612;2023-05-02T05:43:00;6.22;;;4.10;;
69795;SDS011;57073;45.650;9.612;2023-05-02T05:48:00;6.30;;;4.05;;
69795;SDS011;57073;45.650;9.612;2023-05-02T05:53:01;6.13;;;4.07;;
69795;SDS011;57073;45.650;9.612;2023-05-02T05:58:01;6.50;;;4.07;;
69795;SDS011;57073;45.650;9.612;2023-05-02T06:03:02;5.47;;;3.33;;
69795;SDS011;57073;45.650;9.612;2023-05-02T06:08:03;5.70;;;2.90;;
69795;SDS011;57073;45.650;9.612;2023-05-02T06:13:03;4.50;;;2.50;;
69795;SDS011;57073;45.650;9.612;2023-05-02T06:18:04;4.00;;;2.50;;
69795;SDS011;57073;45.650;9.612;2023-05-02T06:23:04;3.07;;;2.07;;
69795;SDS011;57073;45.650;9.612;2023-05-02T06:28:05;3.05;;;2.20;;
69795;SDS011;57073;45.650;9.612;2023-05-02T06:33:06;4.68;;;2.60;;
69795;SDS011;57073;45.650;9.612;2023-05-02T06:38:06;5.63;;;2.92;;
69795;SDS011;57073;45.650;9.612;2023-05-02T06:43:06;5.50;;;3.40;;
69795;SDS011;57073;45.650;9.612;2023-05-02T06:48:07;5.53;;;3.37;;
69795;SDS011;57073;45.650;9.612;2023-05-02T06:53:08;6.37;;;4.20;;
69795;SDS011;57073;45.650;9.612;2023-05-02T06:58:08;6.00;;;4.23;;
69795;SDS011;57073;45.650;9.612;2023-05-02T07:03:08;7.10;;;4.37;;
69795;SDS011;57073;45.650;9.612;2023-05-02T07:08:10;5.38;;;3.90;;
69795;SDS011;57073;45.650;9.612;2023-05-02T07:13:10;5.37;;;3.67;;
69795;SDS011;57073;45.650;9.612;2023-05-02T07:18:10;7.10;;;4.03;;
69795;SDS011;57073;45.650;9.612;2023-05-02T07:23:11;8.10;;;4.90;;
69795;SDS011;57073;45.650;9.612;2023-05-02T07:28:11;6.65;;;4.93;;
69795;SDS011;57073;45.650;9.612;2023-05-02T07:33:13;7.83;;;4.60;;
69795;SDS011;57073;45.650;9.612;2023-05-02T07:38:14;7.63;;;4.43;;
69795;SDS011;57073;45.650;9.612;2023-05-02T07:43:14;7.30;;;4.63;;
69795;SDS011;57073;45.650;9.612;2023-05-02T07:48:15;7.20;;;4.80;;
69795;SDS011;57073;45.650;9.612;2023-05-02T07:53:15;7.00;;;4.50;;
69795;SDS011;57073;45.650;9.612;2023-05-02T07:58:16;6.80;;;5.00;;
69795;SDS011;57073;45.650;9.612;2023-05-02T08:03:16;6.77;;;4.20;;
69795;SDS011;57073;45.650;9.612;2023-05-02T08:08:16;4.30;;;3.40;;
69795;SDS011;57073;45.650;9.612;2023-05-02T08:13:17;4.93;;;3.20;;
69795;SDS011;57073;45.650;9.612;2023-05-02T08:18:17;4.27;;;2.50;;
69795;SDS011;57073;45.650;9.612;2023-05-02T08:23:17;4.28;;;2.13;;
69795;SDS011;57073;45.650;9.612;2023-05-02T08:28:18;5.90;;;2.80;;
69795;SDS011;57073;45.650;9.612;2023-05-02T08:33:18;4.80;;;2.77;;
69795;SDS011;57073;45.650;9.612;2023-05-02T08:38:19;4.73;;;3.00;;
69795;SDS011;57073;45.650;9.612;2023-05-02T08:43:19;7.73;;;3.40;;
69795;SDS011;57073;45.650;9.612;2023-05-02T08:48:20;3.87;;;2.60;;
69795;SDS011;57073;45.650;9.612;2023-05-02T08:53:20;3.50;;;2.10;;
69795;SDS011;57073;45.650;9.612;2023-05-02T08:58:23;3.70;;;2.28;;
69795;SDS011;57073;45.650;9.612;2023-05-02T09:08:34;6.80;;;2.70;;
69795;SDS011;57073;45.650;9.612;2023-05-02T09:13:42;3.27;;;2.10;;
69795;SDS011;57073;45.650;9.612;2023-05-02T09:18:47;4.78;;;2.28;;
69795;SDS011;57073;45.650;9.612;2023-05-02T09:23:53;4.00;;;2.38;;
69795;SDS011;57073;45.650;9.612;2023-05-02T09:28:54;3.07;;;2.03;;
69795;SDS011;57073;45.650;9.612;2023-05-02T09:33:55;3.70;;;2.22;;
69795;SDS011;57073;45.650;9.612;2023-05-02T09:38:57;2.35;;;1.67;;
69795;SDS011;57073;45.650;9.612;2023-05-02T09:44:09;3.63;;;1.60;;
69795;SDS011;57073;45.650;9.612;2023-05-02T09:49:11;3.47;;;1.80;;
69795;SDS011;57073;45.650;9.612;2023-05-02T09:54:13;3.00;;;1.60;;
69795;SDS011;57073;45.650;9.612;2023-05-02T09:59:40;2.17;;;1.40;;
69795;SDS011;57073;45.650;9.612;2023-05-02T10:04:41;2.40;;;1.30;;
69795;SDS011;57073;45.650;9.612;2023-05-02T10:09:43;1.83;;;1.27;;
69795;SDS011;57073;45.650;9.612;2023-05-02T10:14:46;2.47;;;1.20;;
69795;SDS011;57073;45.650;9.612;2023-05-02T10:19:55;1.92;;;0.90;;
69795;SDS011;57073;45.650;9.612;2023-05-02T10:24:59;1.50;;;1.00;;
69795;SDS011;57073;45.650;9.612;2023-05-02T10:30:02;2.70;;;1.10;;
69795;SDS011;57073;45.650;9.612;2023-05-02T10:35:05;2.30;;;1.20;;
69795;SDS011;57073;45.650;9.612;2023-05-02T10:40:10;2.38;;;1.20;;
69795;SDS011;57073;45.650;9.612;2023-05-02T10:45:12;2.70;;;1.40;;
69795;SDS011;57073;45.650;9.612;2023-05-02T10:50:41;1.30;;;1.10;;
69795;SDS011;57073;45.650;9.612;2023-05-02T10:56:06;2.17;;;1.17;;
69795;SDS011;57073;45.650;9.612;2023-05-02T11:06:30;2.20;;;1.30;;
69795;SDS011;57073;45.650;9.612;2023-05-02T11:11:42;2.38;;;1.33;;
69795;SDS011;57073;45.650;9.612;2023-05-02T11:37:54;1.93;;;1.10;;
69795;SDS011;57073;45.650;9.612;2023-05-02T11:42:57;1.50;;;1.20;;
69795;SDS011;57073;45.650;9.612;2023-05-02T11:47:58;5.40;;;2.10;;
69795;SDS011;57073;45.650;9.612;2023-05-02T11:52:59;3.00;;;1.40;;
69795;SDS011;57073;45.650;9.612;2023-05-02T11:58:00;3.00;;;1.60;;
69795;SDS011;57073;45.650;9.612;2023-05-02T12:03:00;2.50;;;1.50;;
69795;SDS011;57073;45.650;9.612;2023-05-02T12:08:01;2.10;;;1.40;;
69795;SDS011;57073;45.650;9.612;2023-05-02T12:13:04;3.03;;;1.40;;
69795;SDS011;57073;45.650;9.612;2023-05-02T12:18:05;1.70;;;1.20;;
69795;SDS011;57073;45.650;9.612;2023-05-02T12:23:06;2.67;;;1.80;;
69795;SDS011;57073;45.650;9.612;2023-05-02T12:28:09;2.40;;;1.87;;
69795;SDS011;57073;45.650;9.612;2023-05-02T12:33:10;1.98;;;1.55;;
69795;SDS011;57073;45.650;9.612;2023-05-02T12:38:12;3.87;;;2.10;;
69795;SDS011;57073;45.650;9.612;2023-05-02T12:43:22;3.03;;;2.08;;
69795;SDS011;57073;45.650;9.612;2023-05-02T12:48:23;4.53;;;2.63;;
69795;SDS011;57073;45.650;9.612;2023-05-02T12:53:42;3.47;;;2.10;;
69795;SDS011;57073;45.650;9.612;2023-05-02T12:58:44;3.33;;;2.50;;
69795;SDS011;57073;45.650;9.612;2023-05-02T13:03:45;5.20;;;2.60;;
69795;SDS011;57073;45.650;9.612;2023-05-02T13:08:46;4.90;;;3.37;;
69795;SDS011;57073;45.650;9.612;2023-05-02T13:13:47;5.40;;;3.20;;
69795;SDS011;57073;45.650;9.612;2023-05-02T13:18:47;4.07;;;2.97;;
69795;SDS011;57073;45.650;9.612;2023-05-02T13:23:48;5.03;;;2.90;;
69795;SDS011;57073;45.650;9.612;2023-05-02T13:28:49;3.88;;;2.70;;
69795;SDS011;57073;45.650;9.612;2023-05-02T13:33:50;3.95;;;2.70;;
69795;SDS011;57073;45.650;9.612;2023-05-02T13:38:50;2.95;;;2.10;;
69795;SDS011;57073;45.650;9.612;2023-05-02T13:43:50;9.43;;;3.10;;
69795;SDS011;57073;45.650;9.612;2023-05-02T13:48:54;4.17;;;3.10;;
69795;SDS011;57073;45.650;9.612;2023-05-02T13:53:54;5.43;;;2.63;;
69795;SDS011;57073;45.650;9.612;2023-05-02T13:58:54;3.80;;;2.80;;
69795;SDS011;57073;45.650;9.612;2023-05-02T14:03:55;4.45;;;3.15;;
69795;SDS011;57073;45.650;9.612;2023-05-02T14:08:56;5.90;;;3.53;;
69795;SDS011;57073;45.650;9.612;2023-05-02T14:13:56;4.43;;;3.20;;
69795;SDS011;57073;45.650;9.612;2023-05-02T14:18:58;4.70;;;3.60;;
69795;SDS011;57073;45.650;9.612;2023-05-02T14:24:01;6.20;;;3.37;;
69795;SDS011;57073;45.650;9.612;2023-05-02T14:29:02;4.97;;;2.63;;
69795;SDS011;57073;45.650;9.612;2023-05-02T14:34:02;4.23;;;3.17;;
69795;SDS011;57073;45.650;9.612;2023-05-02T14:39:02;4.80;;;3.30;;
69795;SDS011;57073;45.650;9.612;2023-05-02T14:44:03;5.07;;;3.33;;
69795;SDS011;57073;45.650;9.612;2023-05-02T14:49:03;4.63;;;2.90;;
69795;SDS011;57073;45.650;9.612;2023-05-02T14:54:07;4.97;;;3.33;;
69795;SDS011;57073;45.650;9.612;2023-05-02T14:59:07;4.10;;;3.27;;
69795;SDS011;57073;45.650;9.612;2023-05-02T15:04:07;4.37;;;3.00;;
69795;SDS011;57073;45.650;9.612;2023-05-02T15:09:08;3.70;;;2.80;;
69795;SDS011;57073;45.650;9.612;2023-05-02T15:14:08;3.43;;;2.40;;
69795;SDS011;57073;45.650;9.612;2023-05-02T15:19:09;3.30;;;2.17;;
69795;SDS011;57073;45.650;9.612;2023-05-02T15:24:09;4.53;;;2.70;;
69795;SDS011;57073;45.650;9.612;2023-05-02T15:29:10;4.43;;;2.50;;
69795;SDS011;57073;45.650;9.612;2023-05-02T15:34:10;2.87;;;2.20;;
69795;SDS011;57073;45.650;9.612;2023-05-02T15:39:11;4.93;;;2.60;;
69795;SDS011;57073;45.650;9.612;2023-05-02T15:44:12;3.03;;;2.17;;
69795;SDS011;57073;45.650;9.612;2023-05-02T15:49:12;4.30;;;2.70;;
69795;SDS011;57073;45.650;9.612;2023-05-02T15:54:13;3.30;;;2.40;;
69795;SDS011;57073;45.650;9.612;2023-05-02T15:59:13;5.97;;;3.37;;
69795;SDS011;57073;45.650;9.612;2023-05-02T16:04:13;4.77;;;3.57;;
69795;SDS011;57073;45.650;9.612;2023-05-02T16:09:14;4.07;;;3.50;;
69795;SDS011;57073;45.650;9.612;2023-05-02T16:14:14;4.13;;;3.30;;
69795;SDS011;57073;45.650;9.612;2023-05-02T16:19:15;4.27;;;3.33;;
69795;SDS011;57073;45.650;9.612;2023-05-02T16:24:15;5.03;;;3.53;;
69795;SDS011;57073;45.650;9.612;2023-05-02T16:29:15;4.53;;;3.30;;
69795;SDS011;57073;45.650;9.612;2023-05-02T16:34:16;5.20;;;3.20;;
69795;SDS011;57073;45.650;9.612;2023-05-02T16:39:16;4.10;;;2.88;;
69795;SDS011;57073;45.650;9.612;2023-05-02T16:44:16;3.90;;;3.40;;
69795;SDS011;57073;45.650;9.612;2023-05-02T16:49:17;5.80;;;4.00;;
69795;SDS011;57073;45.650;9.612;2023-05-02T16:54:17;7.20;;;4.00;;
69795;SDS011;57073;45.650;9.612;2023-05-02T16:59:19;5.50;;;3.63;;
69795;SDS011;57073;45.650;9.612;2023-05-02T17:04:19;4.67;;;3.70;;
69795;SDS011;57073;45.650;9.612;2023-05-02T17:09:20;4.45;;;3.70;;
69795;SDS011;57073;45.650;9.612;2023-05-02T17:14:20;5.50;;;3.87;;
69795;SDS011;57073;45.650;9.612;2023-05-02T17:19:21;5.33;;;4.13;;
69795;SDS011;57073;45.650;9.612;2023-05-02T17:24:22;3.73;;;2.97;;
69795;SDS011;57073;45.650;9.612;2023-05-02T17:29:23;4.45;;;3.00;;
69795;SDS011;57073;45.650;9.612;2023-05-02T17:34:26;4.93;;;2.95;;
69795;SDS011;57073;45.650;9.612;2023-05-02T17:39:29;3.03;;;2.40;;
69795;SDS011;57073;45.650;9.612;2023-05-02T17:44:30;3.60;;;2.50;;
69795;SDS011;57073;45.650;9.612;2023-05-02T17:49:31;6.63;;;2.70;;
69795;SDS011;57073;45.650;9.612;2023-05-02T17:54:32;3.67;;;2.50;;
69795;SDS011;57073;45.650;9.612;2023-05-02T17:59:32;3.60;;;2.37;;
69795;SDS011;57073;45.650;9.612;2023-05-02T18:04:33;3.87;;;2.47;;
69795;SDS011;57073;45.650;9.612;2023-05-02T18:09:33;4.80;;;3.13;;
69795;SDS011;57073;45.650;9.612;2023-05-02T18:14:33;5.07;;;4.00;;
69795;SDS011;57073;45.650;9.612;2023-05-02T18:19:34;5.27;;;4.07;;
69795;SDS011;57073;45.650;9.612;2023-05-02T18:24:34;4.77;;;3.43;;
69795;SDS011;57073;45.650;9.612;2023-05-02T18:29:35;6.20;;;3.50;;
69795;SDS011;57073;45.650;9.612;2023-05-02T18:34:35;5.35;;;3.42;;
69795;SDS011;57073;45.650;9.612;2023-05-02T18:39:36;4.87;;;3.60;;
69795;SDS011;57073;45.650;9.612;2023-05-02T18:44:36;4.97;;;3.47;;
69795;SDS011;57073;45.650;9.612;2023-05-02T18:49:37;4.93;;;3.40;;
69795;SDS011;57073;45.650;9.612;2023-05-02T18:54:37;6.37;;;3.40;;
69795;SDS011;57073;45.650;9.612;2023-05-02T18:59:37;4.63;;;3.00;;
69795;SDS011;57073;45.650;9.612;2023-05-02T19:04:38;3.40;;;2.70;;
69795;SDS011;57073;45.650;9.612;2023-05-02T19:09:38;3.60;;;2.60;;
69795;SDS011;57073;45.650;9.612;2023-05-02T19:14:39;5.27;;;2.97;;
69795;SDS011;57073;45.650;9.612;2023-05-02T19:19:40;4.07;;;2.38;;
69795;SDS011;57073;45.650;9.612;2023-05-02T19:24:40;2.97;;;2.40;;
69795;SDS011;57073;45.650;9.612;2023-05-02T19:29:41;3.33;;;2.47;;
69795;SDS011;57073;45.650;9.612;2023-05-02T19:34:41;3.03;;;2.43;;
69795;SDS011;57073;45.650;9.612;2023-05-02T19:39:41;3.23;;;2.50;;
69795;SDS011;57073;45.650;9.612;2023-05-02T19:44:42;6.05;;;2.60;;
69795;SDS011;57073;45.650;9.612;2023-05-02T19:49:42;4.23;;;3.13;;
69795;SDS011;57073;45.650;9.612;2023-05-02T19:54:42;4.10;;;2.70;;
69795;SDS011;57073;45.650;9.612;2023-05-02T19:59:43;3.17;;;2.40;;
69795;SDS011;57073;45.650;9.612;2023-05-02T20:04:43;4.33;;;2.70;;
69795;SDS011;57073;45.650;9.612;2023-05-02T20:09:44;5.83;;;3.13;;
69795;SDS011;57073;45.650;9.612;2023-05-02T20:14:44;3.70;;;2.80;;
69795;SDS011;57073;45.650;9.612;2023-05-02T20:19:44;4.40;;;2.87;;
69795;SDS011;57073;45.650;9.612;2023-05-02T20:24:45;4.73;;;2.80;;
69795;SDS011;57073;45.650;9.612;2023-05-02T20:29:45;3.33;;;2.77;;
69795;SDS011;57073;45.650;9.612;2023-05-02T20:34:46;4.23;;;2.37;;
69795;SDS011;57073;45.650;9.612;2023-05-02T20:39:46;3.30;;;2.53;;
69795;SDS011;57073;45.650;9.612;2023-05-02T20:44:53;3.23;;;2.33;;
69795;SDS011;57073;45.650;9.612;2023-05-02T20:49:58;2.88;;;2.28;;
69795;SDS011;57073;45.650;9.612;2023-05-02T20:54:58;2.80;;;2.30;;
69795;SDS011;57073;45.650;9.612;2023-05-02T21:00:00;2.80;;;2.20;;
69795;SDS011;57073;45.650;9.612;2023-05-02T21:05:01;3.47;;;2.45;;
69795;SDS011;57073;45.650;9.612;2023-05-02T21:10:02;3.40;;;2.38;;
69795;SDS011;57073;45.650;9.612;2023-05-02T21:15:03;3.27;;;2.57;;
69795;SDS011;57073;45.650;9.612;2023-05-02T21:20:04;2.90;;;2.13;;
69795;SDS011;57073;45.650;9.612;2023-05-02T21:25:06;3.07;;;2.00;;
69795;SDS011;57073;45.650;9.612;2023-05-02T21:30:06;3.27;;;2.20;;
69795;SDS011;57073;45.650;9.612;2023-05-02T21:35:07;3.03;;;2.13;;
69795;SDS011;57073;45.650;9.612;2023-05-02T21:40:08;3.42;;;2.58;;
69795;SDS011;57073;45.650;9.612;2023-05-02T21:45:09;3.33;;;2.50;;
69795;SDS011;57073;45.650;9.612;2023-05-02T21:50:10;4.00;;;2.15;;
69795;SDS011;57073;45.650;9.612;2023-05-02T21:55:10;5.30;;;2.30;;
69795;SDS011;57073;45.650;9.612;2023-05-02T22:00:11;3.00;;;2.10;;
69795;SDS011;57073;45.650;9.612;2023-05-02T22:05:12;3.07;;;2.20;;
69795;SDS011;57073;45.650;9.612;2023-05-02T22:10:13;4.30;;;2.80;;
69795;SDS011;57073;45.650;9.612;2023-05-02T22:15:13;4.50;;;2.90;;
69795;SDS011;57073;45.650;9.612;2023-05-02T22:20:14;4.50;;;2.73;;
69795;SDS011;57073;45.650;9.612;2023-05-02T22:25:14;3.93;;;2.53;;
69795;SDS011;57073;45.650;9.612;2023-05-02T22:30:15;4.07;;;2.70;;
69795;SDS011;57073;45.650;9.612;2023-05-02T22:35:15;4.80;;;2.77;;
69795;SDS011;57073;45.650;9.612;2023-05-02T22:40:17;3.38;;;2.47;;
69795;SDS011;57073;45.650;9.612;2023-05-02T22:45:17;4.47;;;2.33;;
69795;SDS011;57073;45.650;9.612;2023-05-02T22:50:18;4.37;;;2.63;;
69795;SDS011;57073;45.650;9.612;2023-05-02T22:55:18;3.60;;;2.92;;
69795;SDS011;57073;45.650;9.612;2023-05-02T23:00:19;4.40;;;3.00;;
69795;SDS011;57073;45.650;9.612;2023-05-02T23:05:21;4.97;;;3.30;;
69795;SDS011;57073;45.650;9.612;2023-05-02T23:10:21;6.37;;;3.30;;
69795;SDS011;57073;45.650;9.612;2023-05-02T23:15:22;5.67;;;4.10;;
69795;SDS011;57073;45.650;9.612;2023-05-02T23:20:23;6.13;;;3.95;;
69795;SDS011;57073;45.650;9.612;2023-05-02T23:25:24;7.87;;;4.13;;
69795;SDS011;57073;45.650;9.612;2023-05-02T23:30:27;5.60;;;4.00;;
69795;SDS011;57073;45.650;9.612;2023-05-02T23:35:31;6.53;;;3.77;;
69795;SDS011;57073;45.650;9.612;2023-05-02T23:40:32;5.97;;;3.70;;
69795;SDS011;57073;45.650;9.612;2023-05-02T23:45:33;6.10;;;3.80;;
69795;SDS011;57073;45.650;9.612;2023-05-02T23:50:33;7.25;;;3.80;;
69795;SDS011;57073;45.650;9.612;2023-05-02T23:55:33;11.65;;;6.90;;
